Clayton, NM

2:18 PM MDT on August 25, 2016 (GMT -0600)
Clayton Municipal | | Change Station

Elev 4970 ft 36.45 °N, 103.15 °W | Updated 23 minutes ago

Mostly Cloudy
Mostly Cloudy
74 °F
Feels Like 74 °F
N
4
Wind Variable Wind from Variable

Today
High -- | Low -- °F
--% Chance of Precip.
Yesterday
High -- | Low -- °F
Precip. -- in
Pressure 30.08 in
Visibility 10.0 miles
Clouds Mostly Cloudy 4500 ft
Dew Point 54 °F
Humidity 50%
Rainfall 0.00 in
Snow Depth Not available.
6:18 AM 7:29 PM
Last Quarter, 42% visible
METAR KCAO 251955Z AUTO VRB03KT 10SM BKN045 23/12 A3023 RMK AO2 SLP184 T02330122
Pressure 30.08 in
Visibility 10.0 miles
Clouds Mostly Cloudy 4500 ft
Dew Point 54 °F
Humidity 50%
Rainfall 0.00 in
Snow Depth Not available.
6:18 AM 7:29 PM
Last Quarter, 42% visible
METAR KCAO 251955Z AUTO VRB03KT 10SM BKN045 23/12 A3023 RMK AO2 SLP184 T02330122
A tropical disturbance pushing toward the Bahamas, is expected to develop into a tropical depression or storm, and will likely target Florida and the Gulf Coast this weekend into next week.

Right now, the disturbance remains a broad area of low pressure pushing through the Dominican Republic and Haiti, headed toward the southeast Bahamas. Rainfall totals over 3 inches (with locally higher amounts) are expected in HispaƱiola, particularly over elevated terrain.

10-Day Weather Forecast

Almanac

Astronomy

Aug. 25, 2016 Rise Set
Actual Time
Civil Twilight
Nautical Twilight
Astronomical Twilight
Moon
Length of Visible Light
Length of Day
Tomorrow will be .
, % of the Moon is Illuminated

Today's Extremes

State Highs State Lows

Community

WunderPhotos

Upload Photos

1,934,921 photos uploaded!

WunderBlog® & News

Nearby

Air Quality

  Air Quality AQ Index Pollutant
Not available.

Snow Depth

Station Depth Elevation

Earthquake Activity

City Distance Mag. Time & Date
Minimum magnitude displayed is 2.5.

Coastal Water Temperatures

Place Temperature

Stations

Nearby Weather Stations

Station Location Temp. Windchill Dew Point Humidity Wind Precip. Elev Updated Type
                   

Watches & Warnings

There are currently no watches in effect.